Time;durP1;ratioP1;P1;durP2;ratioP2;P2;SDS_P1;SDS_P2;PMS_P1;PMS_P2;Temp;Humidity;BMP_temperature;BMP_pressure;BME280_temperature;BME280_humidity;BME280_pressure;Samples;Min_cycle;Max_cycle;Signal;HPM_P1;HPM_P2
2022/11/28 00:03:49;;;;;;;13.65;6.50;;;7.60;99.90;;;;;;10043578;28;20497;-73
2022/11/28 00:08:40;;;;;;;15.75;6.75;;;7.60;99.90;;;;;;10041679;28;20042;-72
2022/11/28 00:13:31;;;;;;;10.40;6.18;;;7.70;99.90;;;;;;10040017;28;20411;-70
2022/11/28 00:18:21;;;;;;;14.15;6.93;;;7.80;99.90;;;;;;10042111;28;20104;-73
2022/11/28 00:23:12;;;;;;;15.82;7.72;;;7.80;99.90;;;;;;10041334;28;20029;-68
2022/11/28 00:28:03;;;;;;;14.25;6.72;;;7.70;99.90;;;;;;10039936;28;20037;-74
2022/11/28 00:32:53;;;;;;;14.98;7.65;;;7.70;99.90;;;;;;10044009;28;20104;-72
2022/11/28 00:37:44;;;;;;;13.68;5.75;;;7.70;99.90;;;;;;10044620;28;20108;-72
2022/11/28 00:42:34;;;;;;;13.23;6.22;;;7.60;99.90;;;;;;10044023;28;20447;-73
2022/11/28 00:47:25;;;;;;;14.40;7.47;;;7.70;99.90;;;;;;10034744;28;20065;-72
2022/11/28 00:52:16;;;;;;;15.02;8.13;;;7.60;99.90;;;;;;10029361;28;20032;-66
2022/11/28 00:57:06;;;;;;;16.95;7.80;;;7.60;99.90;;;;;;10024970;28;20160;-61
2022/11/28 01:01:57;;;;;;;13.80;7.40;;;7.60;99.90;;;;;;10029754;28;20021;-64
2022/11/28 01:06:49;;;;;;;18.25;7.95;;;7.70;99.90;;;;;;10047939;28;20135;-66
2022/11/28 01:11:41;;;;;;;16.60;6.80;;;7.60;99.90;;;;;;10027066;28;20022;-69
2022/11/28 01:16:31;;;;;;;12.13;6.95;;;7.70;99.90;;;;;;10027172;28;20489;-72
2022/11/28 01:21:22;;;;;;;12.25;6.00;;;7.60;99.90;;;;;;10032715;28;20026;-74
2022/11/28 01:26:17;;;;;;;15.32;6.78;;;7.60;99.90;;;;;;10037469;28;20659;-75
2022/11/28 01:31:10;;;;;;;12.00;6.53;;;7.60;99.90;;;;;;10034500;28;20037;-74
2022/11/28 01:36:01;;;;;;;11.88;5.72;;;7.60;99.90;;;;;;10024352;28;20022;-76
2022/11/28 01:40:52;;;;;;;12.18;5.90;;;7.70;99.90;;;;;;10032413;28;20017;-72
2022/11/28 01:45:43;;;;;;;15.82;7.30;;;7.60;99.90;;;;;;10040704;28;20144;-73
2022/11/28 01:50:35;;;;;;;11.80;6.07;;;7.60;99.90;;;;;;10038062;28;20050;-73
2022/11/28 01:55:29;;;;;;;10.98;5.55;;;7.70;99.90;;;;;;10025955;28;20022;-73
2022/11/28 02:00:21;;;;;;;11.40;5.72;;;7.60;99.90;;;;;;10029829;28;20366;-75
2022/11/28 02:05:13;;;;;;;10.35;6.25;;;7.60;99.90;;;;;;10031438;28;20534;-71
2022/11/28 02:10:07;;;;;;;12.40;5.95;;;7.60;99.90;;;;;;10036486;28;20034;-71
2022/11/28 02:15:42;;;;;;;5.70;4.43;;;7.70;99.90;;;;;;10032775;28;20795;-72
2022/11/28 02:21:01;;;;;;;10.73;4.95;;;7.70;99.90;;;;;;10025455;28;20104;-73
2022/11/28 02:26:01;;;;;;;9.68;5.32;;;7.60;99.90;;;;;;10039239;28;20035;-67
2022/11/28 02:31:02;;;;;;;9.80;5.45;;;7.60;99.90;;;;;;10041348;28;20041;-71
2022/11/28 02:36:11;;;;;;;6.55;4.88;;;7.40;99.90;;;;;;10029355;28;20029;-72
2022/11/28 02:41:49;;;;;;;11.02;6.47;;;7.40;99.90;;;;;;10040532;28;20123;-72
2022/11/28 02:46:48;;;;;;;13.52;5.75;;;7.30;99.90;;;;;;9975993;28;20053;-73
2022/11/28 02:51:42;;;;;;;10.65;5.05;;;7.20;99.90;;;;;;10030888;28;20034;-62
2022/11/28 02:56:32;;;;;;;9.38;5.63;;;7.20;99.90;;;;;;10031971;28;20038;-73
2022/11/28 03:01:29;;;;;;;10.88;6.20;;;7.10;99.90;;;;;;10037079;28;20092;-72
2022/11/28 03:06:29;;;;;;;9.52;5.80;;;7.20;99.90;;;;;;10041284;28;20026;-71
2022/11/28 03:11:26;;;;;;;12.98;6.03;;;7.20;99.90;;;;;;10038329;28;20022;-71
2022/11/28 03:16:36;;;;;;;12.05;7.22;;;7.40;99.90;;;;;;10046794;28;20029;-71
2022/11/28 03:21:36;;;;;;;10.05;5.40;;;7.40;99.90;;;;;;10043892;28;20549;-73
2022/11/28 03:26:52;;;;;;;13.73;6.15;;;7.50;99.90;;;;;;10043011;28;20052;-72
2022/11/28 03:32:12;;;;;;;11.18;5.78;;;7.40;99.90;;;;;;10043795;28;20026;-71
2022/11/28 03:37:10;;;;;;;12.25;6.47;;;7.30;99.90;;;;;;10031757;28;20492;-71
2022/11/28 03:42:15;;;;;;;9.23;6.53;;;7.40;99.90;;;;;;10042625;28;20027;-70
2022/11/28 03:47:06;;;;;;;12.65;6.63;;;7.50;99.90;;;;;;10044851;28;20049;-74
2022/11/28 03:52:02;;;;;;;12.27;5.93;;;7.40;99.90;;;;;;10039389;28;20076;-73
2022/11/28 03:56:59;;;;;;;;;;;7.40;99.90;;;;;;10040272;28;20025;-72
2022/11/28 04:02:02;;;;;;;12.10;6.00;;;7.40;99.90;;;;;;10041761;28;20107;-73
2022/11/28 04:07:01;;;;;;;10.07;5.18;;;7.40;99.90;;;;;;10032651;28;20046;-71
2022/11/28 04:12:03;;;;;;;11.02;5.70;;;7.40;99.90;;;;;;10032058;28;20036;-74
2022/11/28 04:17:09;;;;;;;12.25;5.95;;;7.50;99.90;;;;;;10033571;28;20025;-70
2022/11/28 04:22:02;;;;;;;;;;;7.50;99.90;;;;;;10038636;28;20491;-67
2022/11/28 04:26:59;;;;;;;12.45;6.18;;;7.60;99.90;;;;;;10041128;28;20020;-73
2022/11/28 04:31:54;;;;;;;9.60;5.97;;;7.60;99.90;;;;;;10037357;28;20101;-66
2022/11/28 04:36:47;;;;;;;9.65;4.78;;;7.60;99.90;;;;;;10034502;28;20030;-69
2022/11/28 04:41:52;;;;;;;9.88;5.45;;;7.50;99.90;;;;;;10040501;28;20167;-69
2022/11/28 04:46:47;;;;;;;10.70;5.30;;;7.50;99.90;;;;;;10046878;28;20042;-74
2022/11/28 04:51:48;;;;;;;9.00;4.97;;;7.50;99.90;;;;;;10040612;28;20362;-63
2022/11/28 04:56:51;;;;;;;8.57;5.18;;;7.60;99.90;;;;;;10035609;28;20029;-67
2022/11/28 05:01:44;;;;;;;7.45;5.05;;;7.60;99.90;;;;;;10036532;28;20033;-72
2022/11/28 05:06:36;;;;;;;7.03;4.15;;;7.70;99.90;;;;;;10039518;28;20406;-68
2022/11/28 05:11:27;;;;;;;10.07;5.57;;;7.70;99.90;;;;;;10042714;28;20448;-74
2022/11/28 05:16:18;;;;;;;10.23;5.55;;;7.70;99.90;;;;;;10035385;28;20459;-70
2022/11/28 05:21:09;;;;;;;12.35;5.60;;;7.70;99.90;;;;;;10041915;28;20025;-60
2022/11/28 05:26:04;;;;;;;9.38;4.32;;;7.70;99.90;;;;;;10035101;28;20037;-73
2022/11/28 05:31:00;;;;;;;8.18;5.13;;;7.70;99.90;;;;;;10038165;28;20368;-65
2022/11/28 05:35:50;;;;;;;7.32;4.88;;;7.80;99.90;;;;;;10046020;28;20025;-70
2022/11/28 05:40:43;;;;;;;7.90;4.50;;;7.80;99.90;;;;;;10042753;28;20034;-65
2022/11/28 05:45:33;;;;;;;8.85;4.10;;;7.80;99.90;;;;;;10048324;28;20045;-67
2022/11/28 05:50:24;;;;;;;7.95;4.63;;;7.80;99.90;;;;;;10047888;28;20045;-70
2022/11/28 05:55:15;;;;;;;10.48;5.05;;;7.90;99.90;;;;;;10044787;28;20025;-68
2022/11/28 06:00:06;;;;;;;10.10;4.65;;;7.90;99.90;;;;;;10047312;28;20037;-68
2022/11/28 06:04:56;;;;;;;9.07;4.60;;;7.90;99.90;;;;;;10040534;28;20044;-67
2022/11/28 06:09:47;;;;;;;7.90;4.57;;;7.80;99.90;;;;;;10032835;28;20046;-68
2022/11/28 06:14:38;;;;;;;11.20;5.15;;;7.90;99.90;;;;;;10039962;28;20029;-72
2022/11/28 06:19:28;;;;;;;9.00;5.45;;;7.80;99.90;;;;;;10042706;28;20117;-70
2022/11/28 06:24:19;;;;;;;10.77;5.30;;;7.80;99.90;;;;;;10048571;28;20492;-70
2022/11/28 06:29:10;;;;;;;8.18;4.35;;;7.80;99.90;;;;;;10045214;28;20056;-73
2022/11/28 06:34:00;;;;;;;8.07;4.95;;;7.80;99.90;;;;;;10039710;28;20029;-72
2022/11/28 06:38:52;;;;;;;8.77;4.45;;;7.80;99.90;;;;;;10039149;28;20053;-73
2022/11/28 06:43:43;;;;;;;10.02;4.28;;;7.80;99.90;;;;;;10043187;28;20037;-70
2022/11/28 06:48:33;;;;;;;7.20;4.10;;;7.70;99.90;;;;;;10041140;28;20129;-65
2022/11/28 06:53:24;;;;;;;9.68;4.55;;;7.90;99.90;;;;;;10041496;28;20030;-62
2022/11/28 06:58:14;;;;;;;9.43;4.32;;;8.00;99.90;;;;;;10039754;28;20057;-72
2022/11/28 07:03:05;;;;;;;6.15;4.80;;;8.10;99.90;;;;;;10046738;28;20040;-73
2022/11/28 07:07:56;;;;;;;9.75;4.55;;;8.10;99.90;;;;;;10045474;28;20082;-74
2022/11/28 07:12:53;;;;;;;9.50;4.97;;;8.00;99.90;;;;;;10038550;28;20029;-68
2022/11/28 07:17:44;;;;;;;16.25;6.35;;;8.00;99.90;;;;;;10037718;28;20033;-67
2022/11/28 07:22:34;;;;;;;10.13;4.55;;;8.10;99.90;;;;;;10043569;28;20030;-74
2022/11/28 07:27:25;;;;;;;12.55;4.90;;;8.10;99.90;;;;;;10044016;28;20041;-74
2022/11/28 07:32:16;;;;;;;6.65;4.97;;;8.10;99.90;;;;;;10040205;28;20037;-73
2022/11/28 07:37:06;;;;;;;9.32;5.22;;;8.10;99.90;;;;;;10010118;28;20034;-60
2022/11/28 07:41:57;;;;;;;8.05;4.78;;;8.10;99.90;;;;;;10006426;28;20032;-68
2022/11/28 07:46:48;;;;;;;9.52;4.93;;;8.20;99.90;;;;;;10015961;28;21037;-71
2022/11/28 07:51:39;;;;;;;8.60;4.68;;;8.30;99.90;;;;;;10012442;28;20101;-71
2022/11/28 07:56:33;;;;;;;8.35;4.60;;;8.30;99.90;;;;;;9999710;28;20370;-64
2022/11/28 08:01:27;;;;;;;9.00;5.57;;;8.40;99.90;;;;;;10010411;28;20165;-62
2022/11/28 08:06:20;;;;;;;11.25;6.28;;;8.40;99.90;;;;;;10022324;28;20167;-62
2022/11/28 08:11:12;;;;;;;8.50;5.25;;;8.40;99.90;;;;;;10010491;28;20030;-65
2022/11/28 08:16:25;;;;;;;8.52;4.60;;;8.30;99.90;;;;;;10015320;28;20491;-73
2022/11/28 08:21:26;;;;;;;11.25;5.32;;;8.40;99.90;;;;;;10019333;28;20120;-73
2022/11/28 08:26:18;;;;;;;9.63;5.55;;;8.50;99.90;;;;;;10015171;28;20783;-73
2022/11/28 08:31:20;;;;;;;12.85;5.97;;;8.50;99.90;;;;;;10020865;28;20038;-72
2022/11/28 08:36:13;;;;;;;9.38;5.25;;;8.60;99.90;;;;;;10017026;28;20014;-67
2022/11/28 08:41:10;;;;;;;11.48;5.07;;;8.70;99.90;;;;;;10017783;28;20040;-70
2022/11/28 08:46:00;;;;;;;12.45;5.75;;;8.70;99.90;;;;;;10021719;28;20045;-70
2022/11/28 08:50:51;;;;;;;11.35;5.57;;;8.80;99.90;;;;;;10027327;28;20033;-65
2022/11/28 08:55:43;;;;;;;10.25;5.75;;;8.90;99.90;;;;;;10028672;28;20030;-65
2022/11/28 09:00:34;;;;;;;8.98;5.50;;;8.90;99.90;;;;;;10039298;28;20032;-69
2022/11/28 09:05:26;;;;;;;9.05;5.00;;;9.00;99.90;;;;;;10010783;28;20108;-72
2022/11/28 09:10:17;;;;;;;9.93;5.28;;;9.00;99.90;;;;;;10009286;28;20029;-70
2022/11/28 09:15:08;;;;;;;11.27;5.60;;;9.10;99.90;;;;;;10002128;28;20026;-69
2022/11/28 09:19:59;;;;;;;11.20;5.55;;;9.10;99.90;;;;;;10001641;28;20022;-67
2022/11/28 09:24:50;;;;;;;10.98;5.97;;;9.10;99.90;;;;;;9998693;28;20022;-62
2022/11/28 09:29:40;;;;;;;9.75;4.93;;;9.30;99.90;;;;;;10003766;28;20299;-63
2022/11/28 09:34:31;;;;;;;8.77;5.20;;;9.20;99.90;;;;;;10004179;28;20507;-65
2022/11/28 09:39:23;;;;;;;9.80;4.60;;;9.40;99.90;;;;;;10000725;28;20117;-67
2022/11/28 09:44:21;;;;;;;8.57;5.18;;;9.60;99.90;;;;;;10002125;28;20451;-62
2022/11/28 09:49:43;;;;;;;7.40;4.38;;;9.50;99.90;;;;;;10001160;28;20042;-62
2022/11/28 09:55:06;;;;;;;18.85;7.50;;;9.40;99.90;;;;;;9998640;28;20080;-61
2022/11/28 09:59:57;;;;;;;22.50;10.00;;;9.50;99.90;;;;;;9988475;28;20026;-64
2022/11/28 10:05:19;;;;;;;14.93;5.80;;;9.50;99.90;;;;;;10010615;28;20412;-67
2022/11/28 10:10:22;;;;;;;8.88;5.68;;;9.60;99.90;;;;;;9999153;28;20049;-67
2022/11/28 10:15:25;;;;;;;11.75;4.80;;;9.60;99.90;;;;;;9992150;28;20103;-64
2022/11/28 10:20:35;;;;;;;5.50;3.70;;;9.70;99.90;;;;;;10005659;28;20041;-64
2022/11/28 10:25:28;;;;;;;7.25;4.32;;;9.60;99.90;;;;;;10006024;28;20053;-66
2022/11/28 10:30:32;;;;;;;5.03;3.80;;;9.60;99.90;;;;;;10011187;28;20088;-60
2022/11/28 10:35:41;;;;;;;7.28;4.00;;;9.50;99.90;;;;;;10023659;28;20454;-65
2022/11/28 10:40:47;;;;;;;6.68;3.45;;;9.60;99.90;;;;;;10014116;28;20030;-68
2022/11/28 10:45:54;;;;;;;6.28;3.92;;;9.70;99.90;;;;;;10031483;28;20073;-66
2022/11/28 10:50:54;;;;;;;6.18;3.60;;;9.90;99.90;;;;;;10018889;28;20045;-68
2022/11/28 10:56:52;;;;;;;6.68;4.15;;;10.10;99.90;;;;;;10021514;28;20076;-70
2022/11/28 11:01:42;;;;;;;7.88;3.38;;;10.20;99.90;;;;;;9920164;28;20429;-72
2022/11/28 11:06:36;;;;;;;6.70;3.97;;;10.20;99.90;;;;;;10012503;28;20048;-66
2022/11/28 11:11:38;;;;;;;6.80;3.67;;;10.30;99.90;;;;;;10031316;28;20053;-73
2022/11/28 11:16:50;;;;;;;6.43;3.88;;;10.30;99.90;;;;;;10000069;28;20026;-70
2022/11/28 11:22:02;;;;;;;4.30;3.10;;;10.40;99.90;;;;;;10018871;28;20817;-73
2022/11/28 11:26:53;;;;;;;7.47;3.45;;;10.50;99.90;;;;;;10029322;28;20184;-63
2022/11/28 11:31:50;;;;;;;6.57;3.30;;;10.50;99.90;;;;;;10003477;28;20052;-71
2022/11/28 11:36:41;;;;;;;7.00;3.05;;;10.60;99.90;;;;;;10009747;28;20141;-74
2022/11/28 11:41:32;;;;;;;7.55;3.88;;;10.60;99.90;;;;;;10000967;28;20121;-65
2022/11/28 11:46:23;;;;;;;6.78;3.13;;;10.60;99.90;;;;;;10001750;28;20049;-65
2022/11/28 11:51:28;;;;;;;7.30;3.80;;;10.50;99.90;;;;;;10004952;28;20038;-66
2022/11/28 11:56:19;;;;;;;8.80;4.43;;;10.40;99.90;;;;;;10014690;28;20025;-63
2022/11/28 12:01:12;;;;;;;7.57;3.70;;;10.40;99.90;;;;;;10015640;28;20025;-67
2022/11/28 12:06:22;;;;;;;4.85;3.03;;;10.40;99.90;;;;;;10019671;28;20489;-63
2022/11/28 12:11:38;;;;;;;6.60;3.90;;;10.50;99.90;;;;;;10027452;28;20454;-66
2022/11/28 12:17:19;;;;;;;7.05;3.35;;;10.40;99.90;;;;;;10021227;28;20536;-68
2022/11/28 12:22:39;;;;;;;9.18;3.97;;;10.30;99.90;;;;;;10018688;28;20053;-73
2022/11/28 12:27:50;;;;;;;8.57;3.83;;;10.20;99.90;;;;;;10033856;28;20039;-73
2022/11/28 12:33:27;;;;;;;5.22;2.95;;;10.30;99.90;;;;;;10030886;28;20041;-73
2022/11/28 12:38:42;;;;;;;4.95;3.40;;;10.40;99.90;;;;;;10034241;28;20067;-72
2022/11/28 12:44:01;;;;;;;7.78;4.03;;;10.40;99.90;;;;;;10028097;28;20037;-73
2022/11/28 12:49:22;;;;;;;6.10;3.13;;;10.40;99.90;;;;;;10008597;28;20053;-72
2022/11/28 12:54:12;;;;;;;5.15;3.13;;;10.40;99.90;;;;;;10014187;28;20027;-71
2022/11/28 12:59:18;;;;;;;7.65;3.90;;;10.40;99.90;;;;;;10007239;28;20033;-70
2022/11/28 13:04:12;;;;;;;;;;;10.50;99.90;;;;;;10031545;28;20022;-72
2022/11/28 13:09:23;;;;;;;6.38;3.75;;;10.50;99.90;;;;;;10008912;28;19933;-80
2022/11/28 13:14:28;;;;;;;6.15;3.95;;;10.50;99.90;;;;;;9999409;28;20491;-69
2022/11/28 13:19:43;;;;;;;8.07;3.93;;;10.40;99.90;;;;;;10002556;28;20052;-68
2022/11/28 13:24:54;;;;;;;4.20;3.10;;;10.40;99.90;;;;;;9996695;28;20497;-75
2022/11/28 13:30:12;;;;;;;6.78;3.75;;;10.40;99.90;;;;;;9999761;28;20586;-69
2022/11/28 13:35:04;;;;;;;8.43;2.95;;;10.50;99.90;;;;;;9999910;28;20026;-68
2022/11/28 13:40:25;;;;;;;5.88;3.00;;;10.50;99.90;;;;;;9994959;28;20037;-73
2022/11/28 13:45:31;;;;;;;7.57;3.75;;;10.60;99.90;;;;;;10000097;28;20485;-68
2022/11/28 13:50:28;;;;;;;5.80;3.65;;;10.60;99.90;;;;;;10010792;28;20270;-73
2022/11/28 14:23:36;;;;;;;6.75;3.63;;;9.40;99.90;;;;;;10127213;27;20493;-72
2022/11/28 14:28:35;;;;;;;4.95;2.50;;;9.60;99.90;;;;;;10151001;28;20398;-71
2022/11/28 14:33:35;;;;;;;6.47;3.15;;;9.90;99.90;;;;;;10154067;28;20032;-70
2022/11/28 14:38:32;;;;;;;6.65;3.58;;;10.10;99.90;;;;;;10156765;28;20020;-67
2022/11/28 14:43:23;;;;;;;5.47;3.30;;;10.20;99.90;;;;;;10151454;28;20838;-68
2022/11/28 14:48:38;;;;;;;6.28;4.10;;;10.10;99.90;;;;;;10154448;28;20017;-71
2022/11/28 14:53:37;;;;;;;6.57;3.90;;;10.10;99.90;;;;;;10145561;28;20091;-67
2022/11/28 14:58:27;;;;;;;9.63;4.28;;;10.10;99.90;;;;;;10155709;28;20020;-71
2022/11/28 15:03:25;;;;;;;7.10;4.97;;;10.10;99.90;;;;;;10146901;28;20418;-71
2022/11/28 15:08:24;;;;;;;6.95;3.80;;;10.10;99.90;;;;;;10150406;28;20066;-69
2022/11/28 15:13:47;;;;;;;4.38;3.28;;;10.10;99.90;;;;;;10148833;28;20024;-67
2022/11/28 15:18:47;;;;;;;4.65;3.45;;;10.00;99.90;;;;;;10154595;28;20474;-66
2022/11/28 15:23:38;;;;;;;5.70;4.10;;;10.00;99.90;;;;;;10196266;28;20114;-69
2022/11/28 15:28:32;;;;;;;6.55;4.28;;;10.00;99.90;;;;;;10186052;28;20036;-65
2022/11/28 15:33:25;;;;;;;7.97;4.55;;;9.90;99.90;;;;;;10167231;28;20054;-67
2022/11/28 15:38:17;;;;;;;7.30;4.13;;;9.90;99.90;;;;;;10159288;28;20016;-70
2022/11/28 15:43:13;;;;;;;7.60;3.53;;;9.80;99.90;;;;;;10163950;28;20883;-64
2022/11/28 15:48:04;;;;;;;7.25;4.22;;;9.80;99.90;;;;;;10147597;28;20024;-64
2022/11/28 15:52:57;;;;;;;9.10;3.67;;;9.80;99.90;;;;;;10158257;28;20040;-70
2022/11/28 15:57:48;;;;;;;10.80;4.32;;;9.90;99.90;;;;;;10154586;28;20399;-68
2022/11/28 16:02:41;;;;;;;6.50;4.07;;;9.90;99.90;;;;;;10163730;28;20446;-66
2022/11/28 16:07:33;;;;;;;7.00;4.10;;;9.80;99.90;;;;;;10159001;28;20071;-69
2022/11/28 16:12:26;;;;;;;7.90;4.35;;;9.80;99.90;;;;;;10154803;28;20016;-65
2022/11/28 16:17:25;;;;;;;11.00;4.70;;;9.80;99.90;;;;;;10160609;28;20062;-65
2022/11/28 16:22:18;;;;;;;5.82;3.80;;;9.80;99.90;;;;;;10168616;28;20048;-73
2022/11/28 16:27:29;;;;;;;8.43;4.95;;;9.70;99.90;;;;;;10162647;28;20028;-68
2022/11/28 16:32:38;;;;;;;5.82;4.30;;;9.80;99.90;;;;;;10159570;28;20155;-68
2022/11/28 16:37:30;;;;;;;7.30;3.80;;;9.70;99.90;;;;;;10156656;28;20009;-70
2022/11/28 16:42:23;;;;;;;5.15;3.67;;;9.80;99.90;;;;;;10155901;28;20243;-75
2022/11/28 16:47:28;;;;;;;7.20;4.00;;;9.70;99.90;;;;;;10157783;28;20494;-69
2022/11/28 16:52:22;;;;;;;6.38;3.70;;;9.70;99.90;;;;;;10173281;28;20020;-65
2022/11/28 16:57:13;;;;;;;7.00;4.60;;;9.70;99.90;;;;;;10175370;28;20047;-68
2022/11/28 17:02:15;;;;;;;8.95;4.15;;;9.70;99.90;;;;;;10139116;28;20486;-67
2022/11/28 17:07:10;;;;;;;7.63;4.40;;;9.70;99.90;;;;;;10161439;28;20406;-71
2022/11/28 17:12:37;;;;;;;9.93;4.85;;;9.70;99.90;;;;;;10156914;28;20032;-68
2022/11/28 17:17:29;;;;;;;9.35;5.32;;;9.70;99.90;;;;;;10033739;28;20035;-73
2022/11/28 17:22:25;;;;;;;7.03;4.63;;;9.70;99.90;;;;;;10168030;28;20044;-70
2022/11/28 17:27:16;;;;;;;8.52;5.38;;;9.70;99.90;;;;;;10154420;28;20385;-71
2022/11/28 17:32:12;;;;;;;7.38;4.65;;;9.60;99.90;;;;;;10167362;28;20040;-65
2022/11/28 17:37:03;;;;;;;9.27;5.82;;;9.70;99.90;;;;;;10144313;28;20032;-69
2022/11/28 17:41:56;;;;;;;7.72;5.30;;;9.70;99.90;;;;;;10149188;28;21598;-71
2022/11/28 17:46:48;;;;;;;10.18;6.65;;;9.70;99.90;;;;;;10151706;28;20498;-72
2022/11/28 17:51:39;;;;;;;8.82;5.07;;;9.70;99.90;;;;;;10158252;28;20066;-64
2022/11/28 17:56:31;;;;;;;11.00;6.85;;;9.70;99.90;;;;;;10170243;28;20524;-72
2022/11/28 18:01:26;;;;;;;9.50;5.38;;;9.60;99.90;;;;;;10174735;28;20028;-66
2022/11/28 18:06:18;;;;;;;11.23;6.18;;;9.60;99.90;;;;;;10155585;28;20035;-68
2022/11/28 18:11:10;;;;;;;10.70;5.95;;;9.60;99.90;;;;;;10153934;28;20078;-70
2022/11/28 18:16:01;;;;;;;11.13;7.28;;;9.70;99.90;;;;;;10149342;28;20074;-71
2022/11/28 18:20:52;;;;;;;11.80;6.97;;;9.70;99.90;;;;;;10160235;28;20044;-62
2022/11/28 18:25:44;;;;;;;9.52;6.07;;;9.60;99.90;;;;;;10151246;28;20032;-71
2022/11/28 18:30:35;;;;;;;9.98;6.00;;;9.70;99.90;;;;;;10160499;28;20212;-62
2022/11/28 18:35:26;;;;;;;12.48;6.38;;;9.80;99.90;;;;;;10149723;28;20501;-62
2022/11/28 18:40:17;;;;;;;10.85;7.40;;;9.70;99.90;;;;;;10160733;28;20024;-64
2022/11/28 18:45:09;;;;;;;14.15;8.15;;;9.60;99.90;;;;;;10160802;28;20504;-62
2022/11/28 18:50:00;;;;;;;12.73;7.07;;;9.60;99.90;;;;;;10157989;28;20039;-66
2022/11/28 18:54:51;;;;;;;14.85;8.40;;;9.60;99.90;;;;;;10160735;28;21137;-63
2022/11/28 18:59:42;;;;;;;16.95;9.00;;;9.60;99.90;;;;;;10158190;28;20109;-66
2022/11/28 19:04:33;;;;;;;19.45;9.70;;;9.60;99.90;;;;;;10164242;28;20027;-67
2022/11/28 19:09:23;;;;;;;15.23;8.43;;;9.60;99.90;;;;;;10168627;28;20020;-66
2022/11/28 19:14:16;;;;;;;14.88;7.47;;;9.50;99.90;;;;;;10172249;28;20417;-65
2022/11/28 19:19:07;;;;;;;10.32;6.40;;;9.40;99.90;;;;;;10173332;28;20040;-64
2022/11/28 19:23:59;;;;;;;15.55;7.90;;;9.40;99.90;;;;;;10164050;28;20028;-65
2022/11/28 19:28:51;;;;;;;10.82;6.80;;;9.40;99.90;;;;;;10164812;28;20113;-66
2022/11/28 19:33:42;;;;;;;12.43;8.35;;;9.50;99.90;;;;;;10169127;28;20538;-66
2022/11/28 19:38:35;;;;;;;12.15;7.13;;;9.40;99.90;;;;;;10169463;28;20047;-68
2022/11/28 19:43:25;;;;;;;13.73;7.82;;;9.50;99.90;;;;;;10163943;28;20061;-69
2022/11/28 19:48:16;;;;;;;16.90;8.15;;;9.60;99.90;;;;;;10175922;28;20029;-64
2022/11/28 19:53:07;;;;;;;17.65;7.68;;;9.60;99.90;;;;;;10171684;28;20028;-64
2022/11/28 19:57:58;;;;;;;12.15;7.68;;;9.60;99.90;;;;;;10172900;28;20064;-65
2022/11/28 20:02:49;;;;;;;16.65;8.00;;;9.50;99.90;;;;;;10176369;28;20036;-71
2022/11/28 20:07:40;;;;;;;15.48;7.90;;;9.60;99.90;;;;;;10174485;28;21458;-67
2022/11/28 20:12:30;;;;;;;14.90;8.38;;;9.70;99.90;;;;;;10175895;28;20024;-66
2022/11/28 20:17:21;;;;;;;22.15;9.77;;;9.60;99.90;;;;;;10169387;28;20027;-65
2022/11/28 20:22:12;;;;;;;14.63;8.82;;;9.50;99.90;;;;;;10150812;28;20560;-66
2022/11/28 20:27:03;;;;;;;12.75;7.53;;;9.50;99.90;;;;;;10168660;28;20363;-65
2022/11/28 20:31:55;;;;;;;17.38;8.57;;;9.50;99.90;;;;;;10170075;28;20032;-63
2022/11/28 20:36:51;;;;;;;16.23;9.13;;;9.50;99.90;;;;;;10171394;28;20026;-64
2022/11/28 20:41:41;;;;;;;14.52;9.07;;;9.70;99.90;;;;;;10148882;28;20089;-65
2022/11/28 20:46:34;;;;;;;17.73;8.27;;;9.80;99.90;;;;;;10168129;28;20086;-62
2022/11/28 20:51:26;;;;;;;16.23;8.68;;;9.80;99.90;;;;;;10165801;28;20044;-62
2022/11/28 20:56:23;;;;;;;13.00;7.75;;;9.70;99.90;;;;;;10170458;28;20035;-62
2022/11/28 21:01:19;;;;;;;15.82;7.90;;;9.60;99.90;;;;;;10168870;28;20028;-62
2022/11/28 21:06:11;;;;;;;14.43;8.63;;;9.70;99.90;;;;;;10164541;28;20022;-62
2022/11/28 21:11:06;;;;;;;15.35;8.00;;;9.60;99.90;;;;;;10165117;28;20027;-63
2022/11/28 21:16:02;;;;;;;14.00;7.93;;;9.70;99.90;;;;;;10159116;28;20426;-63
2022/11/28 21:20:53;;;;;;;19.05;9.52;;;9.70;99.90;;;;;;10164562;28;21911;-65
2022/11/28 21:25:44;;;;;;;19.45;10.20;;;9.60;99.90;;;;;;10173345;28;20028;-65
2022/11/28 21:30:43;;;;;;;17.88;9.63;;;9.70;99.90;;;;;;10170316;28;20027;-65
2022/11/28 21:35:34;;;;;;;15.55;9.38;;;9.70;99.90;;;;;;10169956;28;20116;-66
2022/11/28 21:40:24;;;;;;;17.92;9.57;;;9.70;99.90;;;;;;10168958;28;20040;-67
2022/11/28 21:45:15;;;;;;;16.35;9.05;;;9.70;99.90;;;;;;10162192;28;20016;-64
2022/11/28 21:50:07;;;;;;;17.80;9.00;;;9.70;99.90;;;;;;10165294;28;20490;-65
2022/11/28 21:54:57;;;;;;;17.23;9.68;;;9.60;99.90;;;;;;10151490;28;20096;-66
2022/11/28 21:59:48;;;;;;;18.80;10.13;;;9.50;99.90;;;;;;10155146;28;20040;-67
2022/11/28 22:04:39;;;;;;;17.73;9.73;;;9.50;99.90;;;;;;10176902;28;20027;-63
2022/11/28 22:09:29;;;;;;;14.88;10.13;;;9.50;99.90;;;;;;10150368;28;20033;-67
2022/11/28 22:14:20;;;;;;;17.77;9.63;;;9.60;99.90;;;;;;10171725;28;20027;-61
2022/11/28 22:19:11;;;;;;;15.02;8.80;;;9.60;99.90;;;;;;10169311;28;20126;-67
2022/11/28 22:24:02;;;;;;;15.93;10.27;;;9.70;99.90;;;;;;10168891;28;20027;-65
2022/11/28 22:28:52;;;;;;;13.77;8.32;;;9.70;99.90;;;;;;10168422;28;20416;-66
2022/11/28 22:33:44;;;;;;;14.38;8.38;;;9.70;99.90;;;;;;10159885;28;20031;-65
2022/11/28 22:38:34;;;;;;;14.95;9.07;;;9.60;99.90;;;;;;10166516;28;20410;-65
2022/11/28 22:43:25;;;;;;;14.07;9.30;;;9.70;99.90;;;;;;10175746;28;20032;-64
2022/11/28 22:48:15;;;;;;;16.98;7.93;;;9.70;99.90;;;;;;10177977;28;20445;-66
2022/11/28 22:53:06;;;;;;;14.13;7.53;;;9.70;99.90;;;;;;10179554;28;20023;-65
2022/11/28 22:57:57;;;;;;;12.80;6.45;;;9.70;99.90;;;;;;10179415;28;20413;-63
2022/11/28 23:02:47;;;;;;;12.75;7.47;;;9.70;99.90;;;;;;10177913;28;20036;-66
2022/11/28 23:07:39;;;;;;;11.32;6.43;;;9.60;99.90;;;;;;10176164;28;20040;-65
2022/11/28 23:12:30;;;;;;;12.40;6.60;;;9.60;99.90;;;;;;10175701;28;20633;-66
2022/11/28 23:17:20;;;;;;;15.20;6.95;;;9.60;99.90;;;;;;10172256;28;20039;-64
2022/11/28 23:22:11;;;;;;;11.88;5.97;;;9.60;99.90;;;;;;10170050;28;20052;-67
2022/11/28 23:27:02;;;;;;;11.23;7.38;;;9.60;99.90;;;;;;10166520;28;20471;-66
2022/11/28 23:31:52;;;;;;;11.85;6.15;;;9.60;99.90;;;;;;10171179;28;20266;-64
2022/11/28 23:36:45;;;;;;;7.47;5.78;;;9.70;99.90;;;;;;10169223;28;20031;-67
2022/11/28 23:41:36;;;;;;;8.02;5.97;;;9.70;99.90;;;;;;10157987;28;20494;-62
2022/11/28 23:46:27;;;;;;;9.15;5.13;;;9.70;99.90;;;;;;10155846;28;20031;-62
2022/11/28 23:51:22;;;;;;;7.65;5.00;;;9.70;99.90;;;;;;10153737;28;20436;-67
2022/11/28 23:56:21;;;;;;;7.40;5.35;;;9.70;99.90;;;;;;10172740;28;20444;-66
